Burlington, Kansas
Current Conditions -  °F | °C
As of 5:53 PM on Saturday 20 Dec 2014 (Local Time) from KEMP Reporting Station
Clear Clear  
Wind Chill: 37°   Ceiling: Unl
Heat Index: 41°   Visibility: 10mi
Dew Point: 35°   Wind: 6mph
Humidity: 79%   Direction: 180°S
Pressure: 30.1"   Gusts: NA
Location:  38.19°N, 95.74°W
Report Text: KEMP 202353Z AUTO 18005KT 10SM CLR 05/02 A3010 RMK AO2 SLP204 T00500017 10100 20050 53007
Loading
Personal Weather Stations






























Interactive Weather Map New forecast layout! Learn more

10-Day Weather Forecast

Advertisements
Track Severe Weather on mobile